createdAt,value
2022-10-01T00:01:14.945Z,15.08
2022-10-01T00:03:48.202Z,19.60
2022-10-01T00:08:55.912Z,13.98
2022-10-01T00:11:31.624Z,15.50
2022-10-01T00:14:04.784Z,22.62
2022-10-01T00:16:39.197Z,25.17
2022-10-01T00:19:15.579Z,34.78
2022-10-01T00:21:48.415Z,24.92
2022-10-01T00:24:21.564Z,24.07
2022-10-01T00:26:55.156Z,20.65
2022-10-01T00:29:28.230Z,18.82
2022-10-01T00:32:01.701Z,19.85
2022-10-01T00:34:34.692Z,20.52
2022-10-01T00:37:10.642Z,16.87
2022-10-01T00:42:25.487Z,18.65
2022-10-01T00:45:00.635Z,19.17
2022-10-01T00:47:38.292Z,23.50
2022-10-01T00:50:33.477Z,23.40
2022-10-01T00:53:11.121Z,27.95
2022-10-01T00:55:56.117Z,25.57
2022-10-01T00:58:30.186Z,28.90
2022-10-01T01:01:03.229Z,29.00
2022-10-01T01:03:37.328Z,27.00
2022-10-01T01:06:10.287Z,28.15
2022-10-01T01:08:44.023Z,20.62
2022-10-01T01:11:24.287Z,20.88
2022-10-01T01:14:17.422Z,21.17
2022-10-01T01:17:08.054Z,22.62
2022-10-01T01:20:21.924Z,28.25
2022-10-01T01:23:11.524Z,19.23
2022-10-01T01:26:16.538Z,25.62
2022-10-01T01:28:53.164Z,21.35
2022-10-01T01:31:34.546Z,22.62
2022-10-01T01:34:13.625Z,25.65
2022-10-01T01:36:51.170Z,23.12
2022-10-01T01:39:26.361Z,20.80
2022-10-01T01:42:04.054Z,18.00
2022-10-01T01:44:41.005Z,17.02
2022-10-01T01:47:15.526Z,16.75
2022-10-01T01:49:50.215Z,16.77
2022-10-01T01:52:22.893Z,14.98
2022-10-01T01:54:56.842Z,16.00
2022-10-01T01:57:29.870Z,15.38
2022-10-01T02:00:04.148Z,12.90
2022-10-01T02:02:41.693Z,16.75
2022-10-01T02:05:19.133Z,12.23
2022-10-01T02:08:02.329Z,12.75
2022-10-01T02:10:48.397Z,13.00
2022-10-01T02:13:48.295Z,13.20
2022-10-01T02:16:31.963Z,14.28
2022-10-01T02:19:21.243Z,12.65
2022-10-01T02:22:01.748Z,12.68
2022-10-01T02:24:45.717Z,12.15
2022-10-01T02:27:32.318Z,12.45
2022-10-01T02:30:08.875Z,13.48
2022-10-01T02:32:45.336Z,12.78
2022-10-01T02:35:20.636Z,11.55
2022-10-01T02:37:54.810Z,13.93
2022-10-01T02:40:31.200Z,11.35
2022-10-01T02:43:20.378Z,13.55
2022-10-01T02:45:58.747Z,13.62
2022-10-01T02:48:31.993Z,17.40
2022-10-01T02:51:09.515Z,14.53
2022-10-01T02:53:48.410Z,15.75
2022-10-01T02:56:23.042Z,14.33
2022-10-01T02:58:56.015Z,15.55
2022-10-01T03:01:29.987Z,14.98
2022-10-01T03:04:03.307Z,15.95
2022-10-01T03:06:37.485Z,17.80
2022-10-01T03:09:10.392Z,15.50
2022-10-01T03:11:45.023Z,16.87
2022-10-01T03:14:19.365Z,19.42
2022-10-01T03:16:53.326Z,19.63
2022-10-01T03:19:26.239Z,17.05
2022-10-01T03:21:59.224Z,18.62
2022-10-01T03:24:32.650Z,19.50
2022-10-01T03:27:05.627Z,20.50
2022-10-01T03:29:38.483Z,19.52
2022-10-01T03:32:11.624Z,19.80
2022-10-01T03:34:45.048Z,18.47
2022-10-01T03:37:17.824Z,17.37
2022-10-01T03:39:51.457Z,15.83
2022-10-01T03:42:24.333Z,18.50
2022-10-01T03:44:58.138Z,19.27
2022-10-01T03:47:30.991Z,21.05
2022-10-01T03:50:03.987Z,21.45
2022-10-01T03:52:37.771Z,23.05
2022-10-01T03:55:11.422Z,18.15
2022-10-01T03:57:44.436Z,18.05
2022-10-01T04:00:18.734Z,18.92
2022-10-01T04:02:51.457Z,19.55
2022-10-01T04:05:25.940Z,18.05
2022-10-01T04:07:59.979Z,17.12
2022-10-01T04:10:33.607Z,18.40
2022-10-01T04:13:07.635Z,19.37
2022-10-01T04:15:41.033Z,20.08
2022-10-01T04:18:14.120Z,21.30
2022-10-01T04:20:47.249Z,19.27
2022-10-01T04:23:20.150Z,21.35
2022-10-01T04:25:53.355Z,21.73
2022-10-01T04:28:26.143Z,17.70
2022-10-01T04:31:16.763Z,23.32
2022-10-01T04:33:49.786Z,17.85
2022-10-01T04:36:24.028Z,20.82
2022-10-01T04:39:02.110Z,22.90
2022-10-01T04:41:34.467Z,19.60
2022-10-01T04:46:40.336Z,19.77
2022-10-01T04:49:13.100Z,21.03
2022-10-01T04:51:45.973Z,18.37
2022-10-01T04:54:18.774Z,18.23
2022-10-01T04:56:51.764Z,19.07
2022-10-01T04:59:25.913Z,15.40
2022-10-01T05:04:31.025Z,20.25
2022-10-01T05:07:04.129Z,16.60
2022-10-01T05:09:37.077Z,20.85
2022-10-01T05:12:09.988Z,16.90
2022-10-01T05:14:43.025Z,14.20
2022-10-01T05:17:17.598Z,16.12
2022-10-01T05:19:52.403Z,18.10
2022-10-01T05:22:25.353Z,19.17
2022-10-01T05:24:59.829Z,16.42
2022-10-01T05:27:40.389Z,18.20
2022-10-01T05:30:17.319Z,16.73
2022-10-01T05:33:02.454Z,14.47
2022-10-01T05:35:35.295Z,15.70
2022-10-01T05:38:08.203Z,17.17
2022-10-01T05:40:41.772Z,16.50
2022-10-01T05:43:14.919Z,17.32
2022-10-01T05:45:48.299Z,13.77
2022-10-01T05:48:22.091Z,20.25
2022-10-01T05:53:27.827Z,16.10
2022-10-01T05:56:05.491Z,17.17
2022-10-01T05:58:39.071Z,16.50
2022-10-01T06:01:11.761Z,15.55
2022-10-01T06:03:45.132Z,16.97
2022-10-01T06:06:20.107Z,19.02
2022-10-01T06:08:53.785Z,14.05
2022-10-01T06:11:27.372Z,14.23
2022-10-01T06:14:01.152Z,15.07
2022-10-01T06:16:36.095Z,15.68
2022-10-01T06:19:09.313Z,16.52
2022-10-01T06:21:42.726Z,13.48
2022-10-01T06:24:15.638Z,13.85
2022-10-01T06:26:49.310Z,12.37
2022-10-01T06:29:22.203Z,18.10
2022-10-01T06:31:55.410Z,16.90
2022-10-01T06:34:29.057Z,13.20
2022-10-01T06:37:02.483Z,13.43
2022-10-01T06:39:35.358Z,17.07
2022-10-01T06:42:08.380Z,13.53
2022-10-01T06:44:42.568Z,12.40
2022-10-01T06:49:47.891Z,16.07
2022-10-01T06:52:39.081Z,15.50
2022-10-01T06:55:16.475Z,18.20
2022-10-01T06:57:47.232Z,15.88
2022-10-01T07:00:20.120Z,13.80
2022-10-01T07:02:53.368Z,11.12
2022-10-01T07:05:27.540Z,12.00
2022-10-01T07:08:00.215Z,11.70
2022-10-01T07:10:35.277Z,15.60
2022-10-01T07:13:18.609Z,12.65
2022-10-01T07:15:51.445Z,11.43
2022-10-01T07:18:24.963Z,14.87
2022-10-01T07:20:59.616Z,12.28
2022-10-01T07:23:32.577Z,14.73
2022-10-01T07:26:09.560Z,18.15
2022-10-01T07:28:42.677Z,12.82
2022-10-01T07:31:16.255Z,10.75
2022-10-01T07:33:49.202Z,10.58
2022-10-01T07:36:22.047Z,12.37
2022-10-01T07:38:56.115Z,15.35
2022-10-01T07:41:28.846Z,18.60
2022-10-01T07:44:03.713Z,15.08
2022-10-01T07:46:37.047Z,13.20
2022-10-01T07:49:11.580Z,9.65
2022-10-01T07:51:45.083Z,9.13
2022-10-01T07:54:20.480Z,7.60
2022-10-01T07:56:56.085Z,7.42
2022-10-01T07:59:31.498Z,9.95
2022-10-01T08:02:04.832Z,15.32
2022-10-01T08:04:55.563Z,8.03
2022-10-01T08:07:29.139Z,8.00
2022-10-01T08:10:03.825Z,6.60
2022-10-01T08:12:37.222Z,9.65
2022-10-01T08:15:11.988Z,9.20
2022-10-01T08:17:45.750Z,8.15
2022-10-01T08:22:51.738Z,10.18
2022-10-01T08:25:25.541Z,11.43
2022-10-01T08:28:00.540Z,8.10
2022-10-01T08:30:34.123Z,10.70
2022-10-01T08:33:07.515Z,18.60
2022-10-01T08:35:43.823Z,8.15
2022-10-01T08:38:17.869Z,9.83
2022-10-01T08:40:52.601Z,11.12
2022-10-01T08:43:40.106Z,7.37
2022-10-01T08:46:19.670Z,8.73
2022-10-01T08:49:12.241Z,6.90
2022-10-01T08:51:55.385Z,27.90
2022-10-01T08:54:41.338Z,8.73
2022-10-01T08:57:32.375Z,8.48
2022-10-01T09:00:10.193Z,7.90
2022-10-01T09:02:46.234Z,17.23
2022-10-01T09:05:32.617Z,7.75
2022-10-01T09:08:35.346Z,5.70
2022-10-01T09:11:26.034Z,5.80
2022-10-01T09:14:15.267Z,7.30
2022-10-01T09:17:11.152Z,4.80
2022-10-01T09:20:14.322Z,3.62
2022-10-01T09:23:15.708Z,6.42
2022-10-01T09:25:52.890Z,7.42
2022-10-01T09:28:35.036Z,5.15
2022-10-01T09:31:32.023Z,4.20
2022-10-01T09:34:19.372Z,4.80
2022-10-01T09:36:59.644Z,7.75
2022-10-01T09:39:43.249Z,6.35
2022-10-01T09:42:16.319Z,6.75
2022-10-01T09:44:49.771Z,5.55
2022-10-01T09:47:25.487Z,5.15
2022-10-01T09:49:59.929Z,7.55
2022-10-01T09:52:38.871Z,5.67
2022-10-01T09:55:42.059Z,15.43
2022-10-01T09:58:20.178Z,11.85
2022-10-01T10:00:54.915Z,8.83
2022-10-01T10:03:31.335Z,7.33
2022-10-01T10:06:06.967Z,6.40
2022-10-01T10:08:43.780Z,9.05
2022-10-01T10:11:23.598Z,3.45
2022-10-01T10:14:06.877Z,7.62
2022-10-01T10:16:46.431Z,5.10
2022-10-01T10:19:28.765Z,4.12
2022-10-01T10:22:16.257Z,5.33
2022-10-01T10:24:49.016Z,21.40
2022-10-01T10:27:31.487Z,6.87
2022-10-01T10:30:09.230Z,6.47
2022-10-01T10:32:42.993Z,4.92
2022-10-01T10:35:20.375Z,9.88
2022-10-01T10:37:57.534Z,6.20
2022-10-01T10:40:35.012Z,6.22
2022-10-01T10:43:09.685Z,3.80
2022-10-01T10:45:46.185Z,6.05
2022-10-01T10:48:20.010Z,7.95
2022-10-01T10:51:01.762Z,5.28
2022-10-01T10:53:46.987Z,7.08
2022-10-01T10:56:25.554Z,7.03
2022-10-01T10:59:01.385Z,5.37
2022-10-01T11:01:35.376Z,6.92
2022-10-01T11:04:11.645Z,7.78
2022-10-01T11:06:44.443Z,4.47
2022-10-01T11:09:19.140Z,5.13
2022-10-01T11:12:22.363Z,3.17
2022-10-01T11:15:23.472Z,5.28
2022-10-01T11:18:23.327Z,8.13
2022-10-01T11:21:15.751Z,4.42
2022-10-01T11:24:12.277Z,3.83
2022-10-01T11:26:53.287Z,5.87
2022-10-01T11:29:38.099Z,6.03
2022-10-01T11:32:21.480Z,5.30
2022-10-01T11:35:31.119Z,3.58
2022-10-01T11:38:42.307Z,3.62
2022-10-01T11:41:31.899Z,6.00
2022-10-01T11:44:22.364Z,5.00
2022-10-01T11:47:05.416Z,7.40
2022-10-01T11:50:00.624Z,5.28
2022-10-01T11:52:41.688Z,2.90
2022-10-01T11:56:13.314Z,6.05
2022-10-01T11:58:57.546Z,6.12
2022-10-01T12:01:49.230Z,4.97
2022-10-01T12:04:40.944Z,3.95
2022-10-01T12:07:30.200Z,5.80
2022-10-01T12:10:39.640Z,7.10
2022-10-01T12:13:29.401Z,6.22
2022-10-01T12:16:37.229Z,6.72
2022-10-01T12:19:14.824Z,4.65
2022-10-01T12:21:58.292Z,6.12
2022-10-01T12:24:46.181Z,5.95
2022-10-01T12:27:54.264Z,5.30
2022-10-01T12:30:30.642Z,5.28
2022-10-01T12:33:16.340Z,5.42
2022-10-01T12:36:06.164Z,4.75
2022-10-01T12:38:47.079Z,6.50
2022-10-01T12:41:42.505Z,5.25
2022-10-01T12:44:29.488Z,8.13
2022-10-01T12:47:32.677Z,6.80
2022-10-01T12:50:35.855Z,6.08
2022-10-01T12:53:42.277Z,7.30
2022-10-01T12:56:30.706Z,14.07
2022-10-01T12:59:32.133Z,5.97
2022-10-01T13:02:27.429Z,21.57
2022-10-01T13:05:28.773Z,6.37
2022-10-01T13:08:21.144Z,7.50
2022-10-01T13:11:29.139Z,9.43
2022-10-01T13:14:03.705Z,6.97
2022-10-01T13:16:54.709Z,5.55
2022-10-01T13:19:47.026Z,8.90
2022-10-01T13:22:46.179Z,15.15
2022-10-01T13:25:26.689Z,5.35
2022-10-01T13:28:13.431Z,5.83
2022-10-01T13:31:02.820Z,4.95
2022-10-01T13:33:39.174Z,4.47
2022-10-01T13:36:13.479Z,5.47
2022-10-01T13:38:48.256Z,5.70
2022-10-01T13:41:24.861Z,5.85
2022-10-01T13:44:26.985Z,5.17
2022-10-01T13:47:10.251Z,5.55
2022-10-01T13:52:22.571Z,5.10
2022-10-01T13:54:58.245Z,5.75
2022-10-01T13:57:39.401Z,5.65
2022-10-01T14:00:19.758Z,5.72
2022-10-01T14:03:29.894Z,6.12
2022-10-01T14:06:06.673Z,5.95
2022-10-01T14:09:33.063Z,5.03
2022-10-01T14:12:28.011Z,5.35
2022-10-01T14:15:21.593Z,7.95
2022-10-01T14:18:07.224Z,8.75
2022-10-01T14:21:18.203Z,6.30
2022-10-01T14:24:24.422Z,5.22
2022-10-01T14:27:07.520Z,8.00
2022-10-01T14:29:55.015Z,5.70
2022-10-01T14:32:49.279Z,5.08
2022-10-01T14:35:41.979Z,6.72
2022-10-01T14:38:21.121Z,9.03
2022-10-01T14:40:55.152Z,6.78
2022-10-01T14:43:31.534Z,10.58
2022-10-01T14:46:17.191Z,7.90
2022-10-01T14:49:00.207Z,7.03
2022-10-01T14:51:33.622Z,6.50
2022-10-01T14:54:06.438Z,6.87
2022-10-01T14:56:42.747Z,8.95
2022-10-01T14:59:22.989Z,11.60
2022-10-01T15:02:02.722Z,7.60
2022-10-01T15:04:36.012Z,7.87
2022-10-01T15:07:13.673Z,9.50
2022-10-01T15:09:47.903Z,9.63
2022-10-01T15:12:22.815Z,9.23
2022-10-01T15:14:57.195Z,8.63
2022-10-01T15:17:29.928Z,8.98
2022-10-01T15:20:03.908Z,9.08
2022-10-01T15:22:36.914Z,8.75
2022-10-01T15:25:14.316Z,10.40
2022-10-01T15:27:49.532Z,9.50
2022-10-01T15:30:23.637Z,11.55
2022-10-01T15:35:28.475Z,12.18
2022-10-01T15:38:01.364Z,8.50
2022-10-01T15:40:36.121Z,13.32
2022-10-01T15:43:15.856Z,12.73
2022-10-01T15:45:53.368Z,9.50
2022-10-01T15:48:31.153Z,14.95
2022-10-01T15:51:25.795Z,11.28
2022-10-01T15:56:36.210Z,9.95
2022-10-01T15:59:16.558Z,11.80
2022-10-01T16:01:49.851Z,11.45
2022-10-01T16:04:23.605Z,11.95
2022-10-01T16:06:57.282Z,12.13
2022-10-01T16:09:31.201Z,19.20
2022-10-01T16:12:14.512Z,13.78
2022-10-01T16:15:02.484Z,14.23
2022-10-01T16:17:42.716Z,14.18
2022-10-01T16:20:38.027Z,32.88
2022-10-01T16:23:43.875Z,36.55
2022-10-01T16:26:38.460Z,14.85
2022-10-01T16:29:19.609Z,11.22
2022-10-01T16:31:53.093Z,15.35
2022-10-01T16:34:28.343Z,9.50
2022-10-01T16:37:01.182Z,15.10
2022-10-01T16:39:35.154Z,33.42
2022-10-01T16:42:23.511Z,13.30
2022-10-01T16:44:43.093Z,11.05
2022-10-01T16:47:15.859Z,11.53
2022-10-01T16:49:50.498Z,11.33
2022-10-01T16:52:23.818Z,13.60
2022-10-01T16:54:56.802Z,10.32
2022-10-01T16:57:30.367Z,10.32
2022-10-01T17:00:03.481Z,13.60
2022-10-01T17:02:37.182Z,11.20
2022-10-01T17:05:25.685Z,11.35
2022-10-01T17:08:01.847Z,12.50
2022-10-01T17:10:38.718Z,13.93
2022-10-01T17:13:13.050Z,11.53
2022-10-01T17:15:48.690Z,13.65
2022-10-01T17:18:22.398Z,12.37
2022-10-01T17:20:55.535Z,13.90
2022-10-01T17:23:28.755Z,12.30
2022-10-01T17:26:01.793Z,13.85
2022-10-01T17:28:35.064Z,11.60
2022-10-01T17:31:12.235Z,13.98
2022-10-01T17:33:44.785Z,11.68
2022-10-01T17:36:17.531Z,18.32
2022-10-01T17:38:50.462Z,14.38
2022-10-01T17:41:23.791Z,19.85
2022-10-01T17:43:56.689Z,13.88
2022-10-01T17:46:31.277Z,14.50
2022-10-01T17:49:04.559Z,15.00
2022-10-01T17:51:37.800Z,14.47
2022-10-01T17:54:10.749Z,14.75
2022-10-01T17:56:44.426Z,18.50
2022-10-01T17:59:19.255Z,14.20
2022-10-01T18:01:53.343Z,16.05
2022-10-01T18:04:26.783Z,15.07
2022-10-01T18:07:00.238Z,14.93
2022-10-01T18:09:33.114Z,19.57
2022-10-01T18:12:06.383Z,17.77
2022-10-01T18:14:40.524Z,15.45
2022-10-01T18:17:15.768Z,17.80
2022-10-01T18:19:54.247Z,16.45
2022-10-01T18:22:25.222Z,14.68
2022-10-01T18:24:58.506Z,16.35
2022-10-01T18:27:31.568Z,16.62
2022-10-01T18:30:05.016Z,19.77
2022-10-01T18:32:54.617Z,16.67
2022-10-01T18:35:33.744Z,15.90
2022-10-01T18:38:21.756Z,18.37
2022-10-01T18:40:58.446Z,20.62
2022-10-01T18:43:33.802Z,18.07
2022-10-01T18:46:36.656Z,19.15
2022-10-01T18:49:29.390Z,15.85
2022-10-01T18:52:27.916Z,17.30
2022-10-01T18:55:30.708Z,17.60
2022-10-01T18:58:15.348Z,14.83
2022-10-01T19:00:58.937Z,18.75
2022-10-01T19:04:14.103Z,17.55
2022-10-01T19:07:03.848Z,16.27
2022-10-01T19:09:54.550Z,17.07
2022-10-01T19:12:32.539Z,16.62
2022-10-01T19:15:16.368Z,16.97
2022-10-01T19:18:02.839Z,15.18
2022-10-01T19:21:15.992Z,18.75
2022-10-01T19:24:10.089Z,17.90
2022-10-01T19:26:47.692Z,16.90
2022-10-01T19:30:01.713Z,15.83
2022-10-01T19:33:01.919Z,14.65
2022-10-01T19:35:51.523Z,13.83
2022-10-01T19:38:37.819Z,14.65
2022-10-01T19:41:27.114Z,14.55
2022-10-01T19:44:04.406Z,13.62
2022-10-01T19:46:45.925Z,17.87
2022-10-01T19:49:22.795Z,14.15
2022-10-01T19:52:01.664Z,13.55
2022-10-01T19:54:38.794Z,13.40
2022-10-01T19:57:25.322Z,14.03
2022-10-01T20:00:12.130Z,11.90
2022-10-01T20:03:22.987Z,10.78
2022-10-01T20:06:08.021Z,14.35
2022-10-01T20:08:57.313Z,10.65
2022-10-01T20:11:47.885Z,13.58
2022-10-01T20:14:58.436Z,12.35
2022-10-01T20:17:57.117Z,15.53
2022-10-01T20:21:04.532Z,9.78
2022-10-01T20:23:45.252Z,11.85
2022-10-01T20:26:37.123Z,12.37
2022-10-01T20:29:35.028Z,13.00
2022-10-01T20:32:36.507Z,11.83
2022-10-01T20:35:17.289Z,10.10
2022-10-01T20:37:55.259Z,10.63
2022-10-01T20:40:41.544Z,10.98
2022-10-01T20:43:43.272Z,11.40
2022-10-01T20:46:39.184Z,12.53
2022-10-01T20:49:37.159Z,14.75
2022-10-01T20:52:48.109Z,10.72
2022-10-01T20:55:29.462Z,10.55
2022-10-01T20:58:23.204Z,12.75
2022-10-01T21:01:00.942Z,13.53
2022-10-01T21:03:40.424Z,13.68
2022-10-01T21:06:26.432Z,11.65
2022-10-01T21:09:03.899Z,13.95
2022-10-01T21:11:48.442Z,14.40
2022-10-01T21:14:28.060Z,13.62
2022-10-01T21:17:30.074Z,13.30
2022-10-01T21:20:43.896Z,11.63
2022-10-01T21:23:30.420Z,16.40
2022-10-01T21:26:17.769Z,14.13
2022-10-01T21:29:28.683Z,14.90
2022-10-01T21:32:17.870Z,14.75
2022-10-01T21:35:14.617Z,19.87
2022-10-01T21:38:04.289Z,12.90
2022-10-01T21:41:03.138Z,12.37
2022-10-01T21:43:59.395Z,17.00
2022-10-01T21:46:46.035Z,14.63
2022-10-01T21:49:52.113Z,13.72
2022-10-01T21:52:35.745Z,12.68
2022-10-01T21:55:30.013Z,15.08
2022-10-01T21:58:25.479Z,14.70
2022-10-01T22:01:28.613Z,18.80
2022-10-01T22:04:24.729Z,12.78
2022-10-01T22:07:05.013Z,13.93
2022-10-01T22:09:45.206Z,14.60
2022-10-01T22:12:18.670Z,16.48
2022-10-01T22:14:53.376Z,13.35
2022-10-01T22:17:30.600Z,13.90
2022-10-01T22:20:05.620Z,16.15
2022-10-01T22:22:41.877Z,14.43
2022-10-01T22:25:15.796Z,15.28
2022-10-01T22:27:57.193Z,15.78
2022-10-01T22:30:32.674Z,14.95
2022-10-01T22:33:20.242Z,15.80
2022-10-01T22:36:18.708Z,16.52
2022-10-01T22:38:55.276Z,15.68
2022-10-01T22:41:39.448Z,14.90
2022-10-01T22:44:19.301Z,16.90
2022-10-01T22:47:15.372Z,16.93
2022-10-01T22:50:14.408Z,18.57
2022-10-01T22:53:04.332Z,16.95
2022-10-01T22:55:48.444Z,14.05
2022-10-01T22:58:47.271Z,18.85
2022-10-01T23:02:01.905Z,17.75
2022-10-01T23:04:59.832Z,17.82
2022-10-01T23:07:46.319Z,18.23
2022-10-01T23:10:35.541Z,20.02
2022-10-01T23:13:22.806Z,19.50
2022-10-01T23:16:28.501Z,18.52
2022-10-01T23:19:23.879Z,17.75
2022-10-01T23:22:30.965Z,17.95
2022-10-01T23:25:56.293Z,19.20
2022-10-01T23:28:39.331Z,17.10
2022-10-01T23:31:33.397Z,15.43
2022-10-01T23:34:19.543Z,18.20
2022-10-01T23:37:11.955Z,17.73
2022-10-01T23:39:59.018Z,18.75
2022-10-01T23:43:02.262Z,16.95
2022-10-01T23:45:51.231Z,19.02
2022-10-01T23:48:54.693Z,17.32
2022-10-01T23:51:32.079Z,19.90
2022-10-01T23:54:27.952Z,17.70
2022-10-01T23:57:17.639Z,19.23
